createdAt,value
2022-09-28T00:01:22.223Z,1.00
2022-09-28T00:03:52.020Z,1.33
2022-09-28T00:06:24.340Z,1.10
2022-09-28T00:08:52.087Z,0.90
2022-09-28T00:11:21.724Z,1.13
2022-09-28T00:13:56.532Z,0.87
2022-09-28T00:16:28.030Z,1.00
2022-09-28T00:18:55.618Z,1.30
2022-09-28T00:21:30.245Z,1.17
2022-09-28T00:24:12.522Z,1.00
2022-09-28T00:26:52.668Z,0.90
2022-09-28T00:29:26.898Z,0.93
2022-09-28T00:32:10.326Z,1.00
2022-09-28T00:34:45.734Z,1.00
2022-09-28T00:37:14.187Z,1.20
2022-09-28T00:39:41.789Z,1.20
2022-09-28T00:42:21.457Z,1.40
2022-09-28T00:44:53.064Z,1.30
2022-09-28T00:47:23.564Z,1.50
2022-09-28T00:50:11.001Z,1.60
2022-09-28T00:52:54.866Z,1.53
2022-09-28T00:55:37.830Z,1.60
2022-09-28T00:58:09.137Z,1.77
2022-09-28T01:00:36.157Z,1.90
2022-09-28T01:03:04.252Z,2.03
2022-09-28T01:05:31.647Z,1.80
2022-09-28T01:07:58.791Z,2.17
2022-09-28T01:10:27.517Z,2.70
2022-09-28T01:12:55.599Z,2.10
2022-09-28T01:15:28.049Z,2.33
2022-09-28T01:18:22.586Z,2.10
2022-09-28T01:21:01.413Z,2.50
2022-09-28T01:23:54.153Z,2.17
2022-09-28T01:26:50.734Z,2.47
2022-09-28T01:30:14.530Z,2.30
2022-09-28T01:32:50.581Z,2.67
2022-09-28T01:35:31.673Z,2.83
2022-09-28T01:38:19.016Z,2.60
2022-09-28T01:40:47.789Z,2.80
2022-09-28T01:43:24.854Z,2.93
2022-09-28T01:46:00.518Z,3.23
2022-09-28T01:48:37.202Z,2.93
2022-09-28T01:51:18.304Z,3.07
2022-09-28T01:53:55.920Z,2.77
2022-09-28T01:56:37.137Z,3.00
2022-09-28T01:59:16.225Z,2.77
2022-09-28T02:02:12.450Z,2.70
2022-09-28T02:05:04.943Z,3.30
2022-09-28T02:07:54.891Z,2.57
2022-09-28T02:10:30.814Z,3.00
2022-09-28T02:13:09.057Z,3.03
2022-09-28T02:16:04.367Z,2.70
2022-09-28T02:18:31.809Z,2.53
2022-09-28T02:21:23.294Z,2.73
2022-09-28T02:24:02.486Z,2.70
2022-09-28T02:26:39.951Z,2.90
2022-09-28T02:29:06.824Z,2.80
2022-09-28T02:31:34.402Z,2.57
2022-09-28T02:34:01.258Z,2.90
2022-09-28T02:36:29.670Z,2.83
2022-09-28T02:38:58.356Z,2.77
2022-09-28T02:42:03.683Z,2.83
2022-09-28T02:45:06.627Z,2.87
2022-09-28T02:47:56.427Z,3.33
2022-09-28T02:51:00.049Z,3.60
2022-09-28T02:54:22.857Z,3.43
2022-09-28T02:57:19.680Z,3.33
2022-09-28T03:00:07.988Z,3.80
2022-09-28T03:03:09.789Z,3.63
2022-09-28T03:06:14.893Z,4.13
2022-09-28T03:09:09.111Z,3.90
2022-09-28T03:11:46.550Z,3.37
2022-09-28T03:14:14.539Z,4.10
2022-09-28T03:16:45.800Z,4.23
2022-09-28T03:19:14.083Z,3.80
2022-09-28T03:21:41.301Z,3.77
2022-09-28T03:24:11.091Z,3.73
2022-09-28T03:26:39.166Z,3.50
2022-09-28T03:29:06.612Z,3.43
2022-09-28T03:31:33.594Z,3.97
2022-09-28T03:34:00.534Z,4.30
2022-09-28T03:36:27.310Z,3.77
2022-09-28T03:38:56.089Z,3.37
2022-09-28T03:41:25.147Z,3.73
2022-09-28T03:43:51.828Z,3.83
2022-09-28T03:46:18.590Z,3.30
2022-09-28T03:48:45.471Z,3.30
2022-09-28T03:51:12.983Z,3.53
2022-09-28T03:53:40.343Z,3.27
2022-09-28T03:56:15.772Z,3.80
2022-09-28T03:58:43.165Z,3.73
2022-09-28T04:01:16.868Z,3.50
2022-09-28T04:03:44.516Z,3.63
2022-09-28T04:06:11.742Z,4.00
2022-09-28T04:08:38.836Z,3.13
2022-09-28T04:11:05.831Z,3.63
2022-09-28T04:13:32.717Z,3.30
2022-09-28T04:16:01.442Z,3.87
2022-09-28T04:18:28.381Z,3.00
2022-09-28T04:21:12.075Z,2.80
2022-09-28T04:23:40.133Z,3.00
2022-09-28T04:26:16.624Z,2.43
2022-09-28T04:29:06.525Z,3.00
2022-09-28T04:31:44.711Z,2.73
2022-09-28T04:34:13.615Z,2.50
2022-09-28T04:36:41.081Z,2.70
2022-09-28T04:39:07.815Z,2.60
2022-09-28T04:41:34.721Z,2.37
2022-09-28T04:44:01.874Z,2.70
2022-09-28T04:46:28.624Z,2.37
2022-09-28T04:48:55.493Z,2.40
2022-09-28T04:51:22.263Z,2.30
2022-09-28T04:53:49.194Z,2.53
2022-09-28T04:56:18.951Z,2.30
2022-09-28T04:58:51.807Z,2.40
2022-09-28T05:01:20.963Z,2.37
2022-09-28T05:03:47.752Z,2.83
2022-09-28T05:06:15.745Z,2.80
2022-09-28T05:08:43.536Z,3.03
2022-09-28T05:11:14.314Z,3.03
2022-09-28T05:13:45.761Z,3.07
2022-09-28T05:16:16.063Z,3.00
2022-09-28T05:18:43.556Z,3.23
2022-09-28T05:21:15.559Z,2.90
2022-09-28T05:23:47.045Z,3.13
2022-09-28T05:26:14.718Z,2.70
2022-09-28T05:28:41.554Z,2.87
2022-09-28T05:31:08.844Z,3.57
2022-09-28T05:33:36.287Z,3.30
2022-09-28T05:36:04.056Z,3.70
2022-09-28T05:38:31.662Z,5.03
2022-09-28T05:40:59.692Z,3.53
2022-09-28T05:43:27.977Z,3.10
2022-09-28T05:45:55.968Z,3.13
2022-09-28T05:48:23.266Z,3.27
2022-09-28T05:50:54.031Z,3.57
2022-09-28T05:53:21.480Z,3.63
2022-09-28T05:55:48.807Z,3.70
2022-09-28T05:58:16.835Z,4.23
2022-09-28T06:00:43.835Z,3.60
2022-09-28T06:03:13.875Z,4.50
2022-09-28T06:05:41.096Z,4.17
2022-09-28T06:08:12.794Z,4.20
2022-09-28T06:10:40.834Z,4.40
2022-09-28T06:13:10.528Z,4.57
2022-09-28T06:15:39.009Z,5.47
2022-09-28T06:18:14.205Z,4.63
2022-09-28T06:20:41.685Z,5.00
2022-09-28T06:23:13.531Z,4.57
2022-09-28T06:25:41.191Z,5.33
2022-09-28T06:28:13.076Z,4.50
2022-09-28T06:30:42.146Z,4.63
2022-09-28T06:33:13.335Z,4.23
2022-09-28T06:35:40.759Z,4.33
2022-09-28T06:38:08.327Z,4.23
2022-09-28T06:40:36.350Z,3.90
2022-09-28T06:43:11.259Z,4.80
2022-09-28T06:45:42.817Z,4.70
2022-09-28T06:48:11.730Z,4.23
2022-09-28T06:50:41.400Z,3.80
2022-09-28T06:53:12.213Z,4.20
2022-09-28T06:55:46.065Z,3.77
2022-09-28T06:58:17.198Z,3.60
2022-09-28T07:00:44.500Z,3.47
2022-09-28T07:03:15.391Z,4.13
2022-09-28T07:05:53.773Z,3.30
2022-09-28T07:08:25.919Z,3.47
2022-09-28T07:10:56.075Z,3.40
2022-09-28T07:16:13.369Z,3.07
2022-09-28T07:18:40.434Z,2.50
2022-09-28T07:21:08.806Z,2.50
2022-09-28T07:23:49.916Z,2.47
2022-09-28T07:26:22.794Z,2.10
2022-09-28T07:28:50.127Z,2.23
2022-09-28T07:31:16.886Z,2.00
2022-09-28T07:33:43.682Z,1.73
2022-09-28T07:36:10.660Z,1.60
2022-09-28T07:38:38.206Z,1.77
2022-09-28T07:41:16.789Z,1.87
2022-09-28T07:43:43.786Z,1.87
2022-09-28T07:46:13.424Z,1.67
2022-09-28T07:48:42.696Z,1.70
2022-09-28T07:51:10.227Z,1.40
2022-09-28T07:53:38.419Z,1.67
2022-09-28T07:56:09.405Z,1.60
2022-09-28T07:58:38.733Z,1.50
2022-09-28T08:01:10.408Z,1.70
2022-09-28T08:03:38.796Z,1.97
2022-09-28T08:06:11.185Z,1.50
2022-09-28T08:08:44.670Z,1.50
2022-09-28T08:11:15.321Z,1.57
2022-09-28T08:13:43.851Z,1.50
2022-09-28T08:16:11.229Z,1.43
2022-09-28T08:18:38.129Z,1.50
2022-09-28T08:21:24.781Z,1.40
2022-09-28T08:23:52.852Z,1.60
2022-09-28T08:26:19.806Z,1.80
2022-09-28T08:28:47.768Z,1.20
2022-09-28T08:31:14.861Z,1.20
2022-09-28T08:33:44.523Z,1.40
2022-09-28T08:36:11.460Z,1.40
2022-09-28T08:38:38.925Z,1.50
2022-09-28T08:41:17.461Z,1.40
2022-09-28T08:43:57.438Z,1.50
2022-09-28T08:46:32.175Z,1.47
2022-09-28T08:49:32.582Z,1.40
2022-09-28T08:52:07.774Z,1.30
2022-09-28T08:54:54.528Z,1.43
2022-09-28T08:57:33.384Z,1.40
2022-09-28T09:00:09.555Z,1.60
2022-09-28T09:02:39.790Z,1.50
2022-09-28T09:05:14.736Z,1.50
2022-09-28T09:08:00.781Z,1.50
2022-09-28T09:11:02.795Z,1.40
2022-09-28T09:13:38.430Z,1.40
2022-09-28T09:16:37.067Z,1.73
2022-09-28T09:19:42.303Z,1.50
2022-09-28T09:22:40.625Z,1.87
2022-09-28T09:25:41.389Z,1.40
2022-09-28T09:28:20.680Z,2.07
2022-09-28T09:31:37.144Z,1.50
2022-09-28T09:34:32.164Z,2.00
2022-09-28T09:37:13.899Z,1.83
2022-09-28T09:40:07.355Z,2.20
2022-09-28T09:43:13.819Z,2.20
2022-09-28T09:45:58.779Z,2.13
2022-09-28T09:48:52.880Z,1.93
2022-09-28T09:51:38.223Z,2.17
2022-09-28T09:54:42.632Z,2.00
2022-09-28T09:57:30.002Z,2.17
2022-09-28T10:00:01.892Z,1.80
2022-09-28T10:02:40.293Z,2.22
2022-09-28T10:05:12.847Z,1.98
2022-09-28T10:07:54.728Z,1.80
2022-09-28T10:10:35.390Z,1.60
2022-09-28T10:13:03.410Z,1.50
2022-09-28T10:15:35.287Z,1.20
2022-09-28T10:18:11.099Z,1.30
2022-09-28T10:20:42.086Z,1.70
2022-09-28T10:23:23.545Z,1.83
2022-09-28T10:25:56.769Z,1.08
2022-09-28T10:28:45.170Z,1.30
2022-09-28T10:31:36.905Z,1.38
2022-09-28T10:34:05.909Z,1.40
2022-09-28T10:36:43.097Z,1.38
2022-09-28T10:39:37.513Z,1.30
2022-09-28T10:42:12.176Z,1.30
2022-09-28T10:45:02.859Z,1.00
2022-09-28T10:47:32.743Z,1.33
2022-09-28T10:50:00.898Z,1.30
2022-09-28T10:52:44.889Z,1.50
2022-09-28T10:55:33.279Z,1.40
2022-09-28T10:58:00.791Z,1.30
2022-09-28T11:00:41.872Z,1.48
2022-09-28T11:03:28.063Z,1.25
2022-09-28T11:06:07.836Z,1.33
2022-09-28T11:08:38.371Z,1.33
2022-09-28T11:11:11.267Z,1.20
2022-09-28T11:13:42.696Z,1.30
2022-09-28T11:16:24.417Z,1.60
2022-09-28T11:18:51.961Z,1.50
2022-09-28T11:21:28.351Z,1.20
2022-09-28T11:24:02.088Z,1.50
2022-09-28T11:26:41.194Z,1.30
2022-09-28T11:29:38.167Z,1.13
2022-09-28T11:32:06.217Z,1.15
2022-09-28T11:34:58.747Z,1.10
2022-09-28T11:37:45.541Z,1.13
2022-09-28T11:40:34.039Z,1.38
2022-09-28T11:43:31.944Z,1.25
2022-09-28T11:46:27.847Z,1.27
2022-09-28T11:49:03.909Z,0.90
2022-09-28T11:51:40.983Z,0.93
2022-09-28T11:54:50.585Z,1.00
2022-09-28T11:57:26.619Z,1.30
2022-09-28T12:00:10.447Z,1.08
2022-09-28T12:02:46.832Z,1.40
2022-09-28T12:05:29.949Z,0.80
2022-09-28T12:08:12.714Z,1.15
2022-09-28T12:10:57.705Z,1.08
2022-09-28T12:13:33.165Z,1.10
2022-09-28T12:17:05.020Z,1.20
2022-09-28T12:19:55.368Z,1.50
2022-09-28T12:22:34.809Z,1.00
2022-09-28T12:25:04.996Z,1.30
2022-09-28T12:27:51.271Z,1.50
2022-09-28T12:30:21.602Z,2.10
2022-09-28T12:33:13.333Z,1.50
2022-09-28T12:36:03.933Z,1.83
2022-09-28T12:39:21.849Z,1.67
2022-09-28T12:42:31.567Z,1.50
2022-09-28T12:45:38.824Z,1.77
2022-09-28T12:49:36.749Z,1.23
2022-09-28T12:51:51.423Z,1.50
2022-09-28T12:54:55.128Z,1.37
2022-09-28T12:57:42.625Z,2.00
2022-09-28T13:00:22.882Z,2.03
2022-09-28T13:02:55.690Z,2.30
2022-09-28T13:05:56.170Z,1.90
2022-09-28T13:08:48.212Z,1.93
2022-09-28T13:11:43.951Z,1.90
2022-09-28T13:15:09.867Z,1.87
2022-09-28T13:17:51.824Z,3.40
2022-09-28T13:20:39.526Z,2.87
2022-09-28T13:23:25.237Z,2.17
2022-09-28T13:26:13.931Z,2.57
2022-09-28T13:28:43.450Z,2.17
2022-09-28T13:31:15.786Z,2.40
2022-09-28T13:33:47.013Z,1.80
2022-09-28T13:36:28.719Z,1.83
2022-09-28T13:39:00.220Z,2.27
2022-09-28T13:41:40.323Z,1.80
2022-09-28T13:44:13.194Z,2.00
2022-09-28T13:47:03.956Z,2.17
2022-09-28T13:50:17.218Z,2.20
2022-09-28T13:53:31.393Z,2.03
2022-09-28T13:56:24.453Z,2.23
2022-09-28T13:59:03.493Z,2.20
2022-09-28T14:01:39.741Z,2.47
2022-09-28T14:05:02.594Z,2.10
2022-09-28T14:07:35.539Z,1.70
2022-09-28T14:10:37.538Z,1.70
2022-09-28T14:13:06.609Z,1.40
2022-09-28T14:15:35.305Z,1.50
2022-09-28T14:18:13.861Z,1.63
2022-09-28T14:21:03.673Z,1.57
2022-09-28T14:24:22.510Z,2.30
2022-09-28T14:27:34.186Z,2.73
2022-09-28T14:30:20.811Z,1.77
2022-09-28T14:32:58.347Z,1.70
2022-09-28T14:35:40.046Z,1.33
2022-09-28T14:38:44.189Z,1.80
2022-09-28T14:41:17.945Z,2.00
2022-09-28T14:43:44.589Z,2.30
2022-09-28T14:46:11.416Z,2.33
2022-09-28T14:49:03.376Z,2.57
2022-09-28T14:51:30.105Z,2.40
2022-09-28T14:54:04.732Z,1.30
2022-09-28T14:57:08.168Z,1.40
2022-09-28T14:59:43.497Z,1.50
2022-09-28T15:02:31.877Z,1.20
2022-09-28T15:05:27.845Z,0.80
2022-09-28T15:07:56.125Z,0.80
2022-09-28T15:10:35.439Z,1.00
2022-09-28T15:13:16.058Z,0.93
2022-09-28T15:15:50.416Z,1.00
2022-09-28T15:19:08.210Z,1.00
2022-09-28T15:21:39.781Z,0.97
2022-09-28T15:24:31.540Z,4.77
2022-09-28T15:27:00.940Z,1.27
2022-09-28T15:29:33.329Z,1.27
2022-09-28T15:32:01.286Z,1.83
2022-09-28T15:34:51.378Z,1.40
2022-09-28T15:37:32.925Z,8.47
2022-09-28T15:40:01.234Z,1.30
2022-09-28T15:42:28.244Z,1.90
2022-09-28T15:45:07.698Z,4.63
2022-09-28T15:47:35.342Z,1.07
2022-09-28T15:50:27.681Z,1.20
2022-09-28T15:53:01.829Z,1.40
2022-09-28T15:55:39.067Z,2.67
2022-09-28T15:58:21.419Z,2.00
2022-09-28T16:01:12.070Z,2.43
2022-09-28T16:03:38.861Z,3.00
2022-09-28T16:06:09.351Z,2.30
2022-09-28T16:08:36.042Z,2.80
2022-09-28T16:11:38.162Z,3.23
2022-09-28T16:14:18.613Z,3.60
2022-09-28T16:16:46.988Z,1.67
2022-09-28T16:19:29.491Z,1.33
2022-09-28T16:21:59.491Z,1.30
2022-09-28T16:24:37.082Z,1.27
2022-09-28T16:27:05.700Z,1.57
2022-09-28T16:29:42.041Z,1.70
2022-09-28T16:32:26.893Z,2.00
2022-09-28T16:35:27.793Z,1.20
2022-09-28T16:38:05.491Z,1.40
2022-09-28T16:40:33.459Z,1.30
2022-09-28T16:43:05.635Z,1.30
2022-09-28T16:45:35.065Z,1.33
2022-09-28T16:48:03.043Z,1.63
2022-09-28T16:50:29.911Z,1.90
2022-09-28T16:53:31.897Z,2.00
2022-09-28T16:55:59.795Z,2.50
2022-09-28T16:58:27.689Z,1.80
2022-09-28T17:00:55.478Z,1.60
2022-09-28T17:03:23.506Z,2.60
2022-09-28T17:05:51.777Z,2.90
2022-09-28T17:08:22.726Z,1.80
2022-09-28T17:11:14.888Z,1.70
2022-09-28T17:13:47.329Z,1.80
2022-09-28T17:16:36.695Z,2.17
2022-09-28T17:19:23.462Z,3.73
2022-09-28T17:21:52.201Z,2.40
2022-09-28T17:24:20.279Z,2.10
2022-09-28T17:26:50.016Z,1.77
2022-09-28T17:29:17.487Z,1.80
2022-09-28T17:31:46.441Z,1.87
2022-09-28T17:34:16.146Z,1.50
2022-09-28T17:36:43.861Z,1.50
2022-09-28T17:39:15.272Z,1.57
2022-09-28T17:41:42.276Z,1.60
2022-09-28T17:44:09.609Z,1.20
2022-09-28T17:46:39.796Z,2.00
2022-09-28T17:49:11.470Z,1.77
2022-09-28T17:51:38.436Z,1.30
2022-09-28T17:54:07.956Z,1.57
2022-09-28T17:56:36.201Z,1.50
2022-09-28T17:59:10.035Z,1.67
2022-09-28T18:01:39.753Z,1.23
2022-09-28T18:04:09.322Z,1.33
2022-09-28T18:06:39.239Z,1.70
2022-09-28T18:09:06.156Z,2.03
2022-09-28T18:11:34.219Z,3.40
2022-09-28T18:14:01.277Z,2.10
2022-09-28T18:16:29.064Z,2.17
2022-09-28T18:18:56.172Z,2.17
2022-09-28T18:21:23.017Z,2.10
2022-09-28T18:23:49.774Z,2.20
2022-09-28T18:26:19.476Z,2.63
2022-09-28T18:28:47.045Z,2.23
2022-09-28T18:31:15.699Z,2.70
2022-09-28T18:33:43.277Z,2.80
2022-09-28T18:36:10.142Z,2.97
2022-09-28T18:38:38.275Z,2.70
2022-09-28T18:41:13.386Z,2.90
2022-09-28T18:43:40.358Z,2.80
2022-09-28T18:46:09.514Z,2.60
2022-09-28T18:48:38.337Z,3.00
2022-09-28T18:51:09.602Z,2.53
2022-09-28T18:53:37.343Z,2.43
2022-09-28T18:56:13.381Z,2.33
2022-09-28T18:58:42.573Z,2.03
2022-09-28T19:01:33.857Z,2.87
2022-09-28T19:04:03.505Z,2.10
2022-09-28T19:06:32.387Z,1.80
2022-09-28T19:09:03.685Z,2.07
2022-09-28T19:11:30.411Z,2.30
2022-09-28T19:13:57.249Z,1.93
2022-09-28T19:16:30.475Z,1.83
2022-09-28T19:18:58.827Z,1.50
2022-09-28T19:21:26.672Z,1.80
2022-09-28T19:23:55.235Z,2.53
2022-09-28T19:26:26.841Z,1.93
2022-09-28T19:28:55.695Z,1.53
2022-09-28T19:31:23.356Z,2.00
2022-09-28T19:33:50.762Z,2.43
2022-09-28T19:36:23.930Z,2.30
2022-09-28T19:38:52.893Z,3.50
2022-09-28T19:41:44.188Z,2.50
2022-09-28T19:44:15.545Z,2.90
2022-09-28T19:46:43.534Z,3.50
2022-09-28T19:49:14.647Z,3.20
2022-09-28T19:51:56.555Z,3.20
2022-09-28T19:54:35.513Z,3.00
2022-09-28T19:57:08.964Z,3.70
2022-09-28T19:59:37.307Z,3.70
2022-09-28T20:02:07.519Z,2.87
2022-09-28T20:04:34.401Z,4.37
2022-09-28T20:07:01.672Z,3.60
2022-09-28T20:09:28.713Z,4.10
2022-09-28T20:11:55.464Z,4.00
2022-09-28T20:14:24.485Z,3.90
2022-09-28T20:16:53.243Z,3.30
2022-09-28T20:19:21.684Z,3.60
2022-09-28T20:21:49.753Z,3.77
2022-09-28T20:24:17.336Z,4.20
2022-09-28T20:26:46.162Z,4.57
2022-09-28T20:29:13.397Z,3.93
2022-09-28T20:31:40.419Z,4.53
2022-09-28T20:34:07.758Z,4.30
2022-09-28T20:36:35.040Z,3.27
2022-09-28T20:39:04.149Z,3.87
2022-09-28T20:41:36.414Z,3.97
2022-09-28T20:44:06.363Z,3.70
2022-09-28T20:46:35.089Z,5.23
2022-09-28T20:49:02.323Z,3.17
2022-09-28T20:51:29.080Z,3.00
2022-09-28T20:53:57.944Z,3.07
2022-09-28T20:56:37.590Z,3.20
2022-09-28T20:59:08.321Z,3.20
2022-09-28T21:01:35.248Z,3.33
2022-09-28T21:04:04.643Z,3.37
2022-09-28T21:06:39.970Z,2.70
2022-09-28T21:09:09.194Z,3.20
2022-09-28T21:11:36.966Z,2.80
2022-09-28T21:14:06.654Z,2.80
2022-09-28T21:16:35.102Z,3.30
2022-09-28T21:19:02.712Z,3.33
2022-09-28T21:21:30.071Z,3.20
2022-09-28T21:23:58.326Z,3.23
2022-09-28T21:26:28.186Z,3.60
2022-09-28T21:28:57.920Z,3.47
2022-09-28T21:31:29.648Z,3.77
2022-09-28T21:33:57.632Z,3.80
2022-09-28T21:36:25.469Z,3.53
2022-09-28T21:38:54.150Z,3.60
2022-09-28T21:41:20.898Z,3.27
2022-09-28T21:43:47.633Z,2.63
2022-09-28T21:46:14.412Z,3.17
2022-09-28T21:48:41.620Z,2.93
2022-09-28T21:51:13.782Z,2.80
2022-09-28T21:53:40.771Z,3.00
2022-09-28T21:56:10.891Z,3.93
2022-09-28T21:58:38.260Z,3.60
2022-09-28T22:01:13.073Z,2.90
2022-09-28T22:03:41.382Z,3.20
2022-09-28T22:06:09.519Z,3.13
2022-09-28T22:08:37.760Z,2.83
2022-09-28T22:11:12.214Z,3.00
2022-09-28T22:13:46.884Z,2.50
2022-09-28T22:16:16.913Z,3.30
2022-09-28T22:18:44.463Z,2.90
2022-09-28T22:21:17.878Z,2.67
2022-09-28T22:23:45.577Z,3.33
2022-09-28T22:26:25.178Z,3.07
2022-09-28T22:28:54.480Z,2.90
2022-09-28T22:31:25.233Z,2.77
2022-09-28T22:33:52.535Z,2.80
2022-09-28T22:36:19.914Z,2.73
2022-09-28T22:38:47.947Z,2.70
2022-09-28T22:41:17.557Z,2.40
2022-09-28T22:43:44.553Z,3.03
2022-09-28T22:46:33.586Z,3.10
2022-09-28T22:49:00.957Z,2.60
2022-09-28T22:51:29.782Z,2.50
2022-09-28T22:53:57.219Z,3.07
2022-09-28T22:56:25.170Z,3.03
2022-09-28T22:58:52.013Z,2.90
2022-09-28T23:01:25.963Z,2.90
2022-09-28T23:03:54.981Z,3.13
2022-09-28T23:06:26.004Z,2.70
2022-09-28T23:08:53.718Z,3.03
2022-09-28T23:11:20.877Z,3.27
2022-09-28T23:13:56.405Z,3.37
2022-09-28T23:16:25.767Z,3.50
2022-09-28T23:18:55.051Z,3.33
2022-09-28T23:21:25.324Z,3.60
2022-09-28T23:23:56.142Z,3.40
2022-09-28T23:26:27.056Z,3.00
2022-09-28T23:28:55.297Z,4.43
2022-09-28T23:31:30.639Z,2.90
2022-09-28T23:34:04.902Z,2.97
2022-09-28T23:36:32.782Z,3.07
2022-09-28T23:39:00.112Z,2.97
2022-09-28T23:41:26.970Z,3.07
2022-09-28T23:43:53.710Z,2.70
2022-09-28T23:46:21.328Z,3.03
2022-09-28T23:48:49.490Z,2.83
2022-09-28T23:51:17.046Z,3.23
2022-09-28T23:53:43.906Z,3.37
2022-09-28T23:56:11.181Z,3.97
2022-09-28T23:58:38.032Z,3.50
